Time;durP1;ratioP1;P1;durP2;ratioP2;P2;SDS_P1;SDS_P2;PMS_P1;PMS_P2;Temp;Humidity;BMP_temperature;BMP_pressure;BME280_temperature;BME280_humidity;BME280_pressure;Samples;Min_cycle;Max_cycle;Signal;HPM_P1;HPM_P2
2021/12/23 00:01:38;;;;;;;;;;;;;;;8.28;48.75;101310.78;4983571;27;97946;-60
2021/12/23 00:04:04;;;;;;;;;;;;;;;8.28;48.85;101312.66;4983486;27;98598;-65
2021/12/23 00:06:30;;;;;;;;;;;;;;;8.26;48.74;101304.84;4982222;28;127905;-64
2021/12/23 00:08:59;;;;;;;;;;;;;;;8.25;48.14;101297.00;4982555;27;127936;-65
2021/12/23 00:11:25;;;;;;;;;;;;;;;8.24;48.36;101292.69;4983321;28;98010;-65
2021/12/23 00:14:03;;;;;;;;;;;;;;;8.23;48.45;101283.00;4977513;27;98696;-65
2021/12/23 00:16:46;;;;;;;;;;;;;;;8.21;48.71;101272.47;4983673;27;99421;-57
2021/12/23 00:24:37;;;;;;;;;;;;;;;8.17;48.51;101279.38;4982327;27;98167;-65
2021/12/23 00:27:03;;;;;;;;;;;;;;;8.16;48.51;101271.56;4982326;27;101104;-65
2021/12/23 00:29:29;;;;;;;;;;;;;;;8.16;48.38;101271.56;4982040;27;121716;-64
2021/12/23 00:31:55;;;;;;;;;;;;;;;8.14;48.13;101277.16;4982486;27;117218;-65
2021/12/23 00:34:21;;;;;;;;;;;;;;;8.13;48.12;101270.13;4982552;28;105485;-57
2021/12/23 00:36:48;;;;;;;;;;;;;;;8.12;48.41;101265.81;4980010;28;98449;-64
2021/12/23 00:39:15;;;;;;;;;;;;;;;8.10;48.32;101266.06;4962967;28;97929;-57
2021/12/23 00:41:43;;;;;;;;;;;;;;;8.10;48.53;101271.44;4974862;28;97883;-57
2021/12/23 00:44:09;;;;;;;;;;;;;;;8.09;48.58;101263.59;4982213;27;98543;-65
2021/12/23 00:46:35;;;;;;;;;;;;;;;8.07;48.54;101254.97;4981780;27;122741;-57
2021/12/23 00:49:01;;;;;;;;;;;;;;;8.06;48.43;101259.53;4981852;27;126373;-57
2021/12/23 00:51:29;;;;;;;;;;;;;;;8.05;48.40;101263.22;4983579;27;97996;-57
2021/12/23 00:54:04;;;;;;;;;;;;;;;8.04;48.58;101258.91;4970436;27;99072;-58
2021/12/23 00:56:39;;;;;;;;;;;;;;;8.04;48.39;101250.84;4963590;28;98834;-65
2021/12/23 00:59:07;;;;;;;;;;;;;;;8.03;47.98;101248.41;4962979;28;98166;-66
2021/12/23 01:01:33;;;;;;;;;;;;;;;8.02;48.61;101236.88;4977307;28;110768;-65
2021/12/23 01:03:59;;;;;;;;;;;;;;;8.00;48.08;101238.94;4961311;28;128424;-65
2021/12/23 01:06:25;;;;;;;;;;;;;;;7.99;48.16;101240.00;4961506;28;128092;-57
2021/12/23 01:08:51;;;;;;;;;;;;;;;7.99;48.48;101239.19;4976886;28;103601;-57
2021/12/23 01:11:17;;;;;;;;;;;;;;;7.98;48.49;101234.88;4961712;28;119333;-57
2021/12/23 01:13:58;;;;;;;;;;;;;;;7.94;48.45;101237.19;4961154;28;98942;-65
2021/12/23 01:16:36;;;;;;;;;;;;;;;7.96;48.63;101223.53;4962985;28;98669;-65
2021/12/23 01:19:09;;;;;;;;;;;;;;;7.95;48.27;101227.28;4981488;27;98222;-58
2021/12/23 01:21:35;;;;;;;;;;;;;;;7.94;48.63;101221.09;4979618;27;97725;-57
2021/12/23 01:24:01;;;;;;;;;;;;;;;7.93;48.22;101230.19;4960898;28;127980;-57
2021/12/23 01:26:27;;;;;;;;;;;;;;;7.93;48.31;101229.38;4962952;28;98417;-63
2021/12/23 01:28:57;;;;;;;;;;;;;;;7.92;48.06;101228.53;4981156;27;127330;-63
2021/12/23 01:31:24;;;;;;;;;;;;;;;7.92;48.36;101219.69;4982714;27;98043;-65
2021/12/23 01:33:51;;;;;;;;;;;;;;;7.91;48.32;101210.81;4981380;28;99124;-65
2021/12/23 01:36:16;;;;;;;;;;;;;;;7.91;48.45;101208.13;4982703;27;99008;-64
2021/12/23 01:38:42;;;;;;;;;;;;;;;7.90;47.98;101214.56;4981010;27;118383;-56
2021/12/23 01:41:08;;;;;;;;;;;;;;;7.89;48.09;101210.22;4983252;28;97911;-64
2021/12/23 01:43:34;;;;;;;;;;;;;;;7.88;47.80;101203.22;4963015;28;128757;-65
2021/12/23 01:46:00;;;;;;;;;;;;;;;7.86;48.29;101200.78;4963035;28;98356;-57
2021/12/23 01:48:26;;;;;;;;;;;;;;;7.85;48.24;101191.06;4961748;28;97995;-65
2021/12/23 01:50:52;;;;;;;;;;;;;;;7.84;48.13;101177.88;4962636;28;97799;-65
2021/12/23 01:53:18;;;;;;;;;;;;;;;7.83;48.33;101187.00;4962163;28;98516;-58
2021/12/23 01:55:44;;;;;;;;;;;;;;;7.79;48.20;101186.63;4961256;28;122616;-57
2021/12/23 01:58:11;;;;;;;;;;;;;;;7.80;47.97;101196.31;4961779;28;117761;-57
2021/12/23 02:00:38;;;;;;;;;;;;;;;7.79;48.11;101185.81;4993287;27;97870;-58
2021/12/23 02:03:04;;;;;;;;;;;;;;;7.78;48.09;101182.31;4962563;28;121380;-65
2021/12/23 02:05:30;;;;;;;;;;;;;;;7.77;48.11;101169.94;4963275;28;98692;-57
2021/12/23 02:07:57;;;;;;;;;;;;;;;7.76;48.08;101178.22;4961972;28;98433;-65
2021/12/23 02:10:23;;;;;;;;;;;;;;;7.75;48.17;101168.53;4962403;28;97945;-65
2021/12/23 02:12:49;;;;;;;;;;;;;;;7.73;48.09;101158.03;4961195;28;128321;-65
2021/12/23 02:15:15;;;;;;;;;;;;;;;7.71;48.48;101154.78;4981410;27;98530;-64
2021/12/23 02:17:41;;;;;;;;;;;;;;;7.71;48.23;101146.72;4981147;28;97868;-64
2021/12/23 02:20:09;;;;;;;;;;;;;;;7.70;47.96;101144.25;4982272;28;97821;-65
2021/12/23 02:22:35;;;;;;;;;;;;;;;7.69;48.10;101129.19;4973145;28;111251;-57
2021/12/23 02:25:01;;;;;;;;;;;;;;;7.68;47.93;101141.81;4960728;28;126899;-57
2021/12/23 02:27:27;;;;;;;;;;;;;;;7.67;48.12;101139.38;4961166;28;98477;-57
2021/12/23 02:29:53;;;;;;;;;;;;;;;7.65;47.99;101128.84;4959162;28;98138;-65
2021/12/23 02:32:18;;;;;;;;;;;;;;;7.65;47.85;101112.75;4966420;28;121004;-64
2021/12/23 02:34:44;;;;;;;;;;;;;;;7.64;48.15;101108.44;4980866;28;128101;-57
2021/12/23 02:37:10;;;;;;;;;;;;;;;7.63;48.14;101107.63;4973918;28;127773;-64
2021/12/23 02:39:36;;;;;;;;;;;;;;;7.61;48.03;101101.66;4962127;28;98346;-57
2021/12/23 02:42:03;;;;;;;;;;;;;;;7.62;47.97;101097.09;4967862;28;129110;-64
2021/12/23 02:44:29;;;;;;;;;;;;;;;7.61;47.74;101098.16;4962298;28;98298;-63
2021/12/23 02:46:54;;;;;;;;;;;;;;;7.61;47.85;101098.97;4960300;28;128298;-57
2021/12/23 02:49:20;;;;;;;;;;;;;;;7.60;47.96;101086.63;4975894;27;97961;-64
2021/12/23 02:51:46;;;;;;;;;;;;;;;7.61;48.06;101096.28;4979413;28;128463;-57
2021/12/23 02:54:12;;;;;;;;;;;;;;;7.60;47.89;101083.94;4962909;28;129325;-64
2021/12/23 02:56:38;;;;;;;;;;;;;;;7.61;47.95;101076.69;4960471;28;127968;-57
2021/12/23 02:59:04;;;;;;;;;;;;;;;7.61;48.13;101074.00;4960370;28;117539;-57
2021/12/23 03:01:30;;;;;;;;;;;;;;;7.62;47.78;101072.94;4960024;28;128808;-65
2021/12/23 03:03:56;;;;;;;;;;;;;;;7.61;47.96;101050.69;4960251;28;128671;-65
2021/12/23 03:06:22;;;;;;;;;;;;;;;7.61;47.82;101058.72;4961188;28;97987;-65
2021/12/23 03:08:53;;;;;;;;;;;;;;;7.62;47.83;101046.13;4961582;28;98265;-64
2021/12/23 03:11:21;;;;;;;;;;;;;;;7.62;47.87;101035.38;4980906;28;98311;-57
2021/12/23 03:13:47;;;;;;;;;;;;;;;7.62;47.64;101028.19;4979964;27;120937;-58
2021/12/23 03:16:14;;;;;;;;;;;;;;;7.61;47.85;101026.53;4980801;28;108109;-64
2021/12/23 03:18:40;;;;;;;;;;;;;;;7.62;48.02;101032.69;4980902;27;97662;-56
2021/12/23 03:21:05;;;;;;;;;;;;;;;7.63;47.93;101026.31;4980292;28;128837;-57
2021/12/23 03:23:32;;;;;;;;;;;;;;;7.63;48.03;101029.00;4962659;28;127543;-57
2021/12/23 03:25:58;;;;;;;;;;;;;;;7.63;47.97;101020.94;4960759;28;98058;-57
2021/12/23 03:28:24;;;;;;;;;;;;;;;7.64;47.88;101022.56;4963203;28;98900;-67
2021/12/23 03:30:50;;;;;;;;;;;;;;;7.63;48.16;101016.38;4959398;28;121116;-64
2021/12/23 03:33:16;;;;;;;;;;;;;;;7.63;47.85;101005.66;4960239;28;126469;-64
2021/12/23 03:35:42;;;;;;;;;;;;;;;7.62;47.83;101001.34;4991529;27;100461;-65
2021/12/23 03:38:08;;;;;;;;;;;;;;;7.65;47.82;101001.91;4965651;28;97927;-64
2021/12/23 03:40:34;;;;;;;;;;;;;;;7.64;47.97;100998.41;4963141;28;108023;-57
2021/12/23 03:43:00;;;;;;;;;;;;;;;7.63;47.84;100994.91;4976350;28;113213;-64
2021/12/23 03:45:26;;;;;;;;;;;;;;;7.64;47.95;100993.06;4980835;27;124079;-64
2021/12/23 03:47:52;;;;;;;;;;;;;;;7.63;47.88;100984.19;4983591;28;111384;-64
2021/12/23 03:50:19;;;;;;;;;;;;;;;7.63;47.80;100973.44;4983136;27;123105;-66
2021/12/23 03:52:45;;;;;;;;;;;;;;;7.65;48.08;100975.06;4983728;28;98596;-65
2021/12/23 03:55:12;;;;;;;;;;;;;;;7.63;47.97;100965.41;4983971;27;97947;-64
2021/12/23 03:57:38;;;;;;;;;;;;;;;7.63;47.83;100960.03;4983375;27;98007;-64
2021/12/23 04:00:05;;;;;;;;;;;;;;;7.65;48.03;100958.97;4982326;27;126715;-56
2021/12/23 04:02:31;;;;;;;;;;;;;;;7.62;47.81;100953.06;4983218;28;98210;-57
2021/12/23 04:04:57;;;;;;;;;;;;;;;7.63;48.14;100943.94;4980415;27;118599;-64
2021/12/23 04:07:23;;;;;;;;;;;;;;;7.64;48.25;100934.03;4970898;28;97937;-57
2021/12/23 04:09:49;;;;;;;;;;;;;;;7.63;48.00;100927.84;4983281;27;128026;-65
2021/12/23 04:12:15;;;;;;;;;;;;;;;7.63;48.13;100927.84;4982312;28;127470;-64
2021/12/23 04:14:41;;;;;;;;;;;;;;;7.64;48.03;100928.66;4964742;28;98054;-57
2021/12/23 04:17:07;;;;;;;;;;;;;;;7.65;47.91;100916.84;4962676;28;116170;-57
2021/12/23 04:19:33;;;;;;;;;;;;;;;7.63;48.18;100906.38;4962503;28;127066;-66
2021/12/23 04:21:59;;;;;;;;;;;;;;;7.64;48.01;100893.75;4963755;28;99028;-62
2021/12/23 04:24:25;;;;;;;;;;;;;;;7.63;48.08;100894.81;4963153;28;98034;-57
2021/12/23 04:26:51;;;;;;;;;;;;;;;7.63;48.16;100890.28;4964517;28;98132;-57
2021/12/23 04:29:17;;;;;;;;;;;;;;;7.63;48.16;100887.59;4962644;28;127366;-57
2021/12/23 04:31:43;;;;;;;;;;;;;;;7.63;47.87;100895.63;4964900;28;109387;-57
2021/12/23 04:34:09;;;;;;;;;;;;;;;7.62;48.08;100890.50;4978876;27;99437;-65
2021/12/23 04:36:35;;;;;;;;;;;;;;;7.62;48.09;100883.28;4983454;27;97923;-57
2021/12/23 04:39:01;;;;;;;;;;;;;;;7.63;47.95;100876.03;4981858;27;128593;-57
2021/12/23 04:41:27;;;;;;;;;;;;;;;7.63;48.12;100868.81;4983357;28;98296;-57
2021/12/23 04:43:53;;;;;;;;;;;;;;;7.62;48.08;100864.50;4983092;27;98231;-65
2021/12/23 04:46:19;;;;;;;;;;;;;;;7.61;48.04;100857.47;4983118;27;98063;-64
2021/12/23 04:48:45;;;;;;;;;;;;;;;7.62;48.12;100852.94;4970248;28;97965;-64
2021/12/23 04:51:12;;;;;;;;;;;;;;;7.61;48.13;100844.06;4962794;28;98751;-57
2021/12/23 04:53:38;;;;;;;;;;;;;;;7.62;48.08;100840.34;4963151;28;97923;-57
2021/12/23 04:56:04;;;;;;;;;;;;;;;7.61;47.98;100838.69;4963199;28;97749;-58
2021/12/23 04:58:30;;;;;;;;;;;;;;;7.61;48.28;100835.22;4977082;28;100273;-57
2021/12/23 05:00:56;;;;;;;;;;;;;;;7.62;47.90;100826.09;4980506;28;99216;-57
2021/12/23 05:03:23;;;;;;;;;;;;;;;7.61;48.14;100830.66;4962326;28;97931;-58
2021/12/23 05:05:49;;;;;;;;;;;;;;;7.61;48.23;100836.03;4977173;28;104752;-57
2021/12/23 05:08:15;;;;;;;;;;;;;;;7.62;48.11;100832.31;4962788;28;129213;-64
2021/12/23 05:10:41;;;;;;;;;;;;;;;7.63;48.24;100830.44;4962662;28;103402;-65
2021/12/23 05:13:07;;;;;;;;;;;;;;;7.62;48.35;100829.63;4961352;28;115593;-64
2021/12/23 05:15:33;;;;;;;;;;;;;;;7.63;48.22;100822.38;4963281;28;97978;-57
2021/12/23 05:17:59;;;;;;;;;;;;;;;7.63;48.10;100811.66;4962397;28;113449;-57
2021/12/23 05:20:27;;;;;;;;;;;;;;;7.61;48.17;100795.78;4962751;28;98606;-65
2021/12/23 05:22:53;;;;;;;;;;;;;;;7.62;48.20;100796.59;4963055;28;98663;-64
2021/12/23 05:25:19;;;;;;;;;;;;;;;7.62;47.80;100802.78;4961523;28;118333;-64
2021/12/23 05:27:45;;;;;;;;;;;;;;;7.61;47.99;100790.41;4961006;28;128823;-57
2021/12/23 05:30:13;;;;;;;;;;;;;;;7.62;48.21;100794.75;4974936;28;98148;-65
2021/12/23 05:32:41;;;;;;;;;;;;;;;7.62;47.97;100796.59;4981715;27;97978;-57
2021/12/23 05:35:07;;;;;;;;;;;;;;;7.61;48.30;100795.78;4982936;27;98273;-65
2021/12/23 05:37:33;;;;;;;;;;;;;;;7.61;48.15;100782.34;4979504;27;123104;-64
2021/12/23 05:39:59;;;;;;;;;;;;;;;7.61;48.37;100779.66;4981902;27;124197;-65
2021/12/23 05:42:25;;;;;;;;;;;;;;;7.62;48.19;100775.13;4973280;28;127595;-64
2021/12/23 05:44:51;;;;;;;;;;;;;;;7.63;48.37;100768.72;4961745;28;117212;-65
2021/12/23 05:47:17;;;;;;;;;;;;;;;7.62;47.99;100767.06;4961686;28;128503;-64
2021/12/23 05:49:43;;;;;;;;;;;;;;;7.62;48.28;100765.22;4961267;28;128189;-65
2021/12/23 05:52:09;;;;;;;;;;;;;;;7.61;48.36;100760.09;4961650;28;128426;-65
2021/12/23 05:54:34;;;;;;;;;;;;;;;7.62;48.20;100761.69;4961900;28;116025;-64
2021/12/23 05:57:03;;;;;;;;;;;;;;;7.62;48.28;100767.06;4960959;28;128747;-64
2021/12/23 05:59:30;;;;;;;;;;;;;;;7.62;48.45;100756.34;4961880;28;97918;-65
2021/12/23 06:01:56;;;;;;;;;;;;;;;7.65;48.16;100763.09;4962119;28;97819;-64
2021/12/23 06:04:22;;;;;;;;;;;;;;;7.65;48.40;100763.09;4962350;28;119090;-64
2021/12/23 06:06:48;;;;;;;;;;;;;;;7.64;48.50;100756.94;4959811;28;122775;-65
2021/12/23 06:09:14;;;;;;;;;;;;;;;7.66;48.37;100762.03;4961530;28;113511;-63
2021/12/23 06:11:40;;;;;;;;;;;;;;;7.66;48.43;100751.31;4960893;28;127601;-65
2021/12/23 06:14:06;;;;;;;;;;;;;;;7.67;48.50;100744.91;4963011;28;98080;-64
2021/12/23 06:16:32;;;;;;;;;;;;;;;7.66;48.33;100749.44;4962361;28;98340;-64
2021/12/23 06:18:57;;;;;;;;;;;;;;;7.69;48.43;100746.28;4960601;28;119496;-65
2021/12/23 06:21:27;;;;;;;;;;;;;;;7.69;48.39;100753.50;4960591;28;126459;-64
2021/12/23 06:23:53;;;;;;;;;;;;;;;7.71;48.29;100751.41;4993040;27;98227;-65
2021/12/23 06:26:19;;;;;;;;;;;;;;;7.72;48.10;100750.34;4962887;28;99745;-64
2021/12/23 06:28:45;;;;;;;;;;;;;;;7.72;48.40;100753.84;4961123;28;118330;-65
2021/12/23 06:31:11;;;;;;;;;;;;;;;7.73;48.34;100744.72;4960359;28;125481;-64
2021/12/23 06:33:37;;;;;;;;;;;;;;;7.74;48.36;100748.22;4979034;28;118034;-66
2021/12/23 06:36:03;;;;;;;;;;;;;;;7.74;48.36;100740.19;4980783;28;128259;-64
2021/12/23 06:38:29;;;;;;;;;;;;;;;7.74;48.58;100743.69;4979146;27;99173;-65
2021/12/23 06:40:55;;;;;;;;;;;;;;;7.75;48.36;100741.81;4981599;27;104137;-65
2021/12/23 06:43:21;;;;;;;;;;;;;;;7.76;48.63;100738.88;4979686;27;107498;-65
2021/12/23 06:45:47;;;;;;;;;;;;;;;7.75;48.45;100736.47;4980789;28;121337;-65
2021/12/23 06:48:13;;;;;;;;;;;;;;;7.77;48.59;100742.38;4978538;28;126077;-64
2021/12/23 06:50:39;;;;;;;;;;;;;;;7.79;48.51;100742.97;4980559;28;125990;-64
2021/12/23 06:53:05;;;;;;;;;;;;;;;7.79;48.51;100740.28;4978721;27;97912;-65
2021/12/23 06:55:30;;;;;;;;;;;;;;;7.81;48.64;100738.16;4978522;27;126674;-64
2021/12/23 06:57:57;;;;;;;;;;;;;;;7.81;48.61;100735.47;4971923;28;127902;-64
2021/12/23 07:00:24;;;;;;;;;;;;;;;7.82;48.71;100735.25;4957144;28;98090;-65
2021/12/23 07:02:51;;;;;;;;;;;;;;;7.82;48.40;100716.47;4957886;28;98093;-65
2021/12/23 07:05:17;;;;;;;;;;;;;;;7.83;48.53;100722.66;4957420;28;99207;-65
2021/12/23 07:07:54;;;;;;;;;;;;;;;7.84;48.52;100724.25;4958566;28;98590;-64
2021/12/23 07:10:25;;;;;;;;;;;;;;;7.84;48.52;100719.69;4953818;28;97893;-64
2021/12/23 07:12:51;;;;;;;;;;;;;;;7.85;48.78;100724.00;4964624;28;98655;-64
2021/12/23 07:15:17;;;;;;;;;;;;;;;7.86;48.87;100722.16;4958065;28;129328;-56
2021/12/23 07:17:43;;;;;;;;;;;;;;;7.88;48.75;100706.63;4963817;28;97809;-57
2021/12/23 07:20:09;;;;;;;;;;;;;;;7.90;48.61;100701.00;4963217;28;127724;-56
2021/12/23 07:22:35;;;;;;;;;;;;;;;7.91;48.62;100699.97;4966607;28;97983;-63
2021/12/23 07:25:01;;;;;;;;;;;;;;;7.93;48.43;100687.91;4962391;27;98857;-57
2021/12/23 07:27:27;;;;;;;;;;;;;;;7.94;48.38;100686.03;4960481;28;116089;-64
2021/12/23 07:29:53;;;;;;;;;;;;;;;7.94;48.57;100700.28;4957915;28;125804;-64
2021/12/23 07:32:19;;;;;;;;;;;;;;;7.95;48.68;100687.66;4960542;28;117770;-64
2021/12/23 07:34:45;;;;;;;;;;;;;;;7.96;48.89;100690.09;4961180;28;98547;-64
2021/12/23 07:37:11;;;;;;;;;;;;;;;7.99;48.64;100699.53;4960446;28;119509;-57
2021/12/23 07:39:38;;;;;;;;;;;;;;;7.98;48.89;100693.38;4968535;28;98411;-66
2021/12/23 07:42:05;;;;;;;;;;;;;;;7.98;48.65;100688.00;4960430;28;97945;-64
2021/12/23 07:44:30;;;;;;;;;;;;;;;7.99;48.64;100695.00;4960862;28;100625;-65
2021/12/23 07:46:58;;;;;;;;;;;;;;;8.00;48.67;100693.91;4962495;28;129418;-57
2021/12/23 07:49:24;;;;;;;;;;;;;;;8.00;48.84;100693.13;4958017;28;98113;-56
2021/12/23 07:51:50;;;;;;;;;;;;;;;8.00;48.87;100691.25;4960048;28;98802;-64
2021/12/23 07:54:16;;;;;;;;;;;;;;;8.02;48.69;100686.44;4942329;28;98341;-63
2021/12/23 07:56:42;;;;;;;;;;;;;;;8.03;48.48;100681.88;4958929;28;126970;-64
2021/12/23 07:59:07;;;;;;;;;;;;;;;8.06;48.82;100670.66;4959594;28;98666;-64
2021/12/23 08:01:34;;;;;;;;;;;;;;;8.08;49.17;100672.03;4960182;28;97889;-63
2021/12/23 08:03:59;;;;;;;;;;;;;;;8.11;48.66;100660.00;4961266;28;98762;-56
2021/12/23 08:06:26;;;;;;;;;;;;;;;8.15;48.63;100671.06;4959824;28;128086;-64
2021/12/23 08:08:52;;;;;;;;;;;;;;;8.20;48.82;100668.44;4960953;28;98574;-56
2021/12/23 08:11:18;;;;;;;;;;;;;;;8.23;48.27;100660.72;4960903;28;98082;-57
2021/12/23 08:13:44;;;;;;;;;;;;;;;8.25;48.54;100650.53;4963579;28;126771;-57
2021/12/23 08:16:10;;;;;;;;;;;;;;;8.30;48.62;100644.44;4958839;28;129077;-56
2021/12/23 08:18:36;;;;;;;;;;;;;;;8.33;48.58;100655.50;4958438;28;127787;-55
2021/12/23 08:21:02;;;;;;;;;;;;;;;8.35;48.76;100650.66;4967180;28;99008;-56
2021/12/23 08:23:28;;;;;;;;;;;;;;;8.36;48.91;100636.16;4965526;27;127314;-56
2021/12/23 08:25:54;;;;;;;;;;;;;;;8.42;48.13;100633.59;4960805;28;98130;-56
2021/12/23 08:28:21;;;;;;;;;;;;;;;8.46;48.73;100626.66;4958879;28;98478;-63
2021/12/23 08:30:47;;;;;;;;;;;;;;;8.48;48.71;100611.91;4960085;28;97980;-56
2021/12/23 08:33:12;;;;;;;;;;;;;;;8.52;48.04;100604.16;4959464;28;98922;-56
2021/12/23 08:35:38;;;;;;;;;;;;;;;8.55;48.46;100612.53;4958896;28;98953;-56
2021/12/23 08:38:05;;;;;;;;;;;;;;;8.57;48.23;100598.88;4959818;28;127599;-56
2021/12/23 08:40:31;;;;;;;;;;;;;;;8.62;48.17;100608.88;4960164;28;97760;-57
2021/12/23 08:42:57;;;;;;;;;;;;;;;8.64;48.48;100588.72;4961730;28;126498;-56
2021/12/23 08:45:23;;;;;;;;;;;;;;;8.66;48.41;100585.78;4958466;28;128383;-56
2021/12/23 08:47:50;;;;;;;;;;;;;;;8.68;48.45;100587.16;4959727;28;98501;-56
2021/12/23 08:50:16;;;;;;;;;;;;;;;8.70;48.45;100586.91;4959803;28;98071;-63
2021/12/23 08:52:42;;;;;;;;;;;;;;;8.73;48.15;100591.78;4959905;28;98547;-55
2021/12/23 08:55:08;;;;;;;;;;;;;;;8.75;48.54;100592.34;4959430;28;98313;-64
2021/12/23 08:57:34;;;;;;;;;;;;;;;8.78;48.33;100581.91;4961677;28;98103;-56
2021/12/23 09:00:00;;;;;;;;;;;;;;;8.80;48.49;100584.31;4958861;28;117417;-63
2021/12/23 09:02:26;;;;;;;;;;;;;;;8.83;48.11;100575.75;4958763;28;102383;-56
2021/12/23 09:04:52;;;;;;;;;;;;;;;8.87;48.41;100566.13;4957968;28;127756;-63
2021/12/23 09:07:18;;;;;;;;;;;;;;;8.89;48.17;100558.63;4957167;28;118431;-63
2021/12/23 09:09:50;;;;;;;;;;;;;;;8.92;48.44;100555.44;4961872;28;118253;-63
2021/12/23 09:12:16;;;;;;;;;;;;;;;8.94;48.42;100555.19;4961013;28;98713;-56
2021/12/23 09:14:42;;;;;;;;;;;;;;;8.98;48.36;100548.22;4963268;28;98076;-56
2021/12/23 09:17:08;;;;;;;;;;;;;;;9.00;48.01;100551.44;4957842;28;126642;-63
2021/12/23 09:19:34;;;;;;;;;;;;;;;9.02;48.48;100549.34;4959828;27;117879;-64
2021/12/23 09:22:00;;;;;;;;;;;;;;;9.03;48.07;100546.38;4957612;28;129927;-63
2021/12/23 09:24:27;;;;;;;;;;;;;;;9.06;48.78;100547.75;4958202;28;129712;-56
2021/12/23 09:27:02;;;;;;;;;;;;;;;9.09;48.42;100548.06;4958823;28;98461;-63
2021/12/23 09:34:54;;;;;;;;;;;;;;;9.19;48.07;100546.53;4954457;28;97945;-56
2021/12/23 09:37:20;;;;;;;;;;;;;;;9.22;48.48;100540.63;4959432;28;98256;-56
2021/12/23 09:39:52;;;;;;;;;;;;;;;9.25;48.71;100534.75;4958599;28;107834;-63
2021/12/23 09:42:24;;;;;;;;;;;;;;;9.27;48.37;100528.03;4958974;28;98611;-63
2021/12/23 09:44:50;;;;;;;;;;;;;;;9.29;48.53;100530.47;4963068;28;98802;-63
2021/12/23 09:47:16;;;;;;;;;;;;;;;9.31;48.37;100522.94;4958710;28;97908;-63
2021/12/23 09:49:42;;;;;;;;;;;;;;;9.33;48.40;100524.31;4959649;28;117454;-63
2021/12/23 09:52:08;;;;;;;;;;;;;;;9.35;48.19;100518.69;4957737;28;128923;-63
2021/12/23 09:54:34;;;;;;;;;;;;;;;9.37;48.47;100523.81;4957455;28;98410;-63
2021/12/23 09:57:00;;;;;;;;;;;;;;;9.37;48.74;100518.44;4939960;28;120580;-64
2021/12/23 09:59:27;;;;;;;;;;;;;;;9.40;47.85;100515.22;4960102;28;117809;-63
2021/12/23 10:01:54;;;;;;;;;;;;;;;9.43;48.41;100503.94;4958569;28;99435;-63
2021/12/23 10:04:20;;;;;;;;;;;;;;;9.45;48.01;100491.84;4959006;28;99140;-63
2021/12/23 10:06:48;;;;;;;;;;;;;;;9.48;48.30;100504.00;4963688;28;128428;-64
2021/12/23 10:09:22;;;;;;;;;;;;;;;9.50;47.93;100496.44;4958796;28;98094;-63
2021/12/23 10:12:38;;;;;;;;;;;;;;;9.53;48.70;100491.38;4959131;28;98458;-63
2021/12/23 10:31:36;;;;;;;;;;;;;;;9.64;48.23;100459.16;4956274;28;97836;-63
2021/12/23 10:37:31;;;;;;;;;;;;;;;9.68;48.55;100438.72;4961130;28;98077;-63
2021/12/23 10:40:02;;;;;;;;;;;;;;;9.68;48.47;100430.63;4950744;28;98313;-64
2021/12/23 10:42:28;;;;;;;;;;;;;;;9.68;48.77;100427.94;4958237;28;97881;-64
2021/12/23 10:44:59;;;;;;;;;;;;;;;9.69;48.79;100424.16;4963781;27;98769;-64
2021/12/23 10:50:21;;;;;;;;;;;;;;;9.69;49.08;100416.91;4963425;27;97977;-63
2021/12/23 10:52:56;;;;;;;;;;;;;;;9.70;48.16;100402.38;4961411;28;98018;-64
2021/12/23 10:58:02;;;;;;;;;;;;;;;9.72;48.90;100392.16;4958217;28;97975;-64
2021/12/23 11:00:33;;;;;;;;;;;;;;;9.74;48.74;100384.63;4956083;28;98457;-65
2021/12/23 11:03:09;;;;;;;;;;;;;;;9.78;48.51;100379.50;4963985;27;98006;-64
2021/12/23 11:05:40;;;;;;;;;;;;;;;9.80;48.77;100364.72;4961416;28;99060;-65
2021/12/23 11:08:33;;;;;;;;;;;;;;;9.87;48.98;100361.78;4961373;28;98457;-64
2021/12/23 11:28:03;;;;;;;;;;;;;;;9.92;49.23;100299.06;4952644;28;98428;-64
2021/12/23 11:31:38;;;;;;;;;;;;;;;9.91;48.52;100287.50;4962418;28;98393;-64
2021/12/23 11:36:44;;;;;;;;;;;;;;;9.89;48.34;100257.31;4941840;28;98271;-64
2021/12/23 11:39:23;;;;;;;;;;;;;;;9.88;48.99;100231.47;4958816;28;99005;-64
2021/12/23 11:42:01;;;;;;;;;;;;;;;9.88;48.52;100225.28;4961175;28;98688;-64
2021/12/23 11:44:31;;;;;;;;;;;;;;;9.89;48.68;100221.50;4960390;28;99344;-64
2021/12/23 11:47:01;;;;;;;;;;;;;;;9.90;49.08;100206.97;4967657;28;98300;-64
2021/12/23 11:49:27;;;;;;;;;;;;;;;9.90;48.46;100166.59;4960499;28;98514;-64
2021/12/23 11:51:56;;;;;;;;;;;;;;;9.91;48.52;100160.94;4961487;28;98942;-64
2021/12/23 11:54:31;;;;;;;;;;;;;;;9.92;49.24;100148.28;4960283;28;97853;-64
2021/12/23 11:57:16;;;;;;;;;;;;;;;9.91;49.29;100127.84;4959918;28;97666;-63
2021/12/23 11:59:45;;;;;;;;;;;;;;;9.92;48.74;100097.94;4958374;28;98523;-64
2021/12/23 12:02:19;;;;;;;;;;;;;;;9.94;48.85;100086.88;4960910;28;98454;-65
2021/12/23 12:04:45;;;;;;;;;;;;;;;9.95;49.00;100161.22;4958243;28;110278;-64
2021/12/23 12:07:19;;;;;;;;;;;;;;;9.96;48.63;100176.28;4961346;28;97932;-64
2021/12/23 12:09:57;;;;;;;;;;;;;;;9.99;48.63;100178.44;4954698;28;98916;-64
2021/12/23 12:12:23;;;;;;;;;;;;;;;10.00;48.70;100177.34;4952674;28;99202;-64
2021/12/23 12:14:51;;;;;;;;;;;;;;;10.02;49.09;100161.72;4960491;28;104618;-64
2021/12/23 12:17:26;;;;;;;;;;;;;;;10.03;48.69;100156.09;4959719;28;97830;-63
2021/12/23 12:20:21;;;;;;;;;;;;;;;10.06;49.16;100157.41;4961309;28;98920;-63
2021/12/23 12:23:13;;;;;;;;;;;;;;;10.08;48.74;100161.47;4961869;28;98433;-63
2021/12/23 12:25:40;;;;;;;;;;;;;;;10.10;48.80;100150.44;4963758;28;99614;-63
2021/12/23 12:28:06;;;;;;;;;;;;;;;10.15;48.82;100160.38;4961619;28;98574;-63
2021/12/23 12:30:50;;;;;;;;;;;;;;;10.17;49.11;100152.81;4959367;28;98532;-63
2021/12/23 12:33:19;;;;;;;;;;;;;;;10.19;48.82;100127.25;4961548;28;98760;-63
2021/12/23 12:35:57;;;;;;;;;;;;;;;10.23;48.78;100119.44;4959993;28;98304;-63
2021/12/23 12:38:26;;;;;;;;;;;;;;;10.24;49.14;100102.97;4960466;28;97991;-64
2021/12/23 12:40:58;;;;;;;;;;;;;;;10.27;49.07;100101.66;4960316;28;98617;-63
2021/12/23 12:46:13;;;;;;;;;;;;;;;10.33;48.94;100103.25;4957525;28;98141;-63
2021/12/23 12:48:55;;;;;;;;;;;;;;;10.37;48.76;100103.50;4959139;28;98474;-64
2021/12/23 12:51:26;;;;;;;;;;;;;;;10.41;48.82;100064.97;4960047;28;98750;-62
2021/12/23 12:54:04;;;;;;;;;;;;;;;10.43;48.76;100060.13;4961738;28;98214;-63
2021/12/23 12:56:34;;;;;;;;;;;;;;;10.45;49.35;100060.66;4959682;28;98062;-64
2021/12/23 12:59:00;;;;;;;;;;;;;;;10.46;48.93;100064.97;4958378;28;98182;-64
2021/12/23 13:01:42;;;;;;;;;;;;;;;10.48;48.78;100067.38;4966489;28;98855;-64
2021/12/23 13:04:41;;;;;;;;;;;;;;;10.50;48.90;100070.59;4959390;28;99402;-64
2021/12/23 13:07:35;;;;;;;;;;;;;;;10.52;48.83;100077.31;4959937;28;98561;-64
2021/12/23 13:10:11;;;;;;;;;;;;;;;10.55;49.31;100065.19;4960586;28;98279;-64
2021/12/23 13:12:46;;;;;;;;;;;;;;;10.56;49.27;100062.19;4962573;28;98570;-63
2021/12/23 13:15:18;;;;;;;;;;;;;;;10.60;48.67;100048.19;4960701;28;98214;-63
2021/12/23 13:18:04;;;;;;;;;;;;;;;10.61;49.29;100033.63;4965435;28;97752;-64
2021/12/23 13:20:34;;;;;;;;;;;;;;;10.64;48.59;100027.66;4960329;28;98136;-64
2021/12/23 13:23:06;;;;;;;;;;;;;;;10.62;49.21;100025.28;4960643;28;99042;-63
2021/12/23 13:25:32;;;;;;;;;;;;;;;10.63;48.79;100032.25;4960054;28;98662;-63
2021/12/23 13:28:00;;;;;;;;;;;;;;;10.64;48.66;100051.94;4941840;28;98177;-64
2021/12/23 13:30:26;;;;;;;;;;;;;;;10.65;48.78;100058.94;4967271;28;98179;-63
2021/12/23 13:32:59;;;;;;;;;;;;;;;10.64;48.97;100047.34;4963489;28;99838;-64
2021/12/23 13:35:25;;;;;;;;;;;;;;;10.64;48.81;100039.25;4958940;28;98991;-63
2021/12/23 13:37:51;;;;;;;;;;;;;;;10.65;48.59;100042.75;4958928;28;98981;-64
2021/12/23 13:40:31;;;;;;;;;;;;;;;10.65;48.89;100023.88;4958837;28;116592;-63
2021/12/23 13:42:57;;;;;;;;;;;;;;;10.65;48.83;100026.59;4961553;28;98294;-63
2021/12/23 13:45:23;;;;;;;;;;;;;;;10.65;48.93;100029.28;4958782;28;98049;-63